Time;durP1;ratioP1;P1;durP2;ratioP2;P2;SDS_P1;SDS_P2;PMS_P1;PMS_P2;Temp;Humidity;BMP_temperature;BMP_pressure;BME280_temperature;BME280_humidity;BME280_pressure;Samples;Min_cycle;Max_cycle;Signal;HPM_P1;HPM_P2
2022/12/10 00:01:20;;;;;;;29.97;18.43;;;;;;;1.59;100.00;96936.38;5074453;28;20210;-77
2022/12/10 00:03:47;;;;;;;27.40;17.20;;;;;;;1.57;100.00;96938.19;5074314;28;20603;-78
2022/12/10 00:06:16;;;;;;;28.60;17.43;;;;;;;1.55;100.00;96943.50;5074599;28;20227;-78
2022/12/10 00:08:42;;;;;;;26.73;18.13;;;;;;;1.46;100.00;96946.59;5074405;28;20606;-76
2022/12/10 00:11:12;;;;;;;29.17;17.10;;;;;;;1.52;100.00;96950.63;5081324;28;20638;-78
2022/12/10 00:13:41;;;;;;;27.50;16.87;;;;;;;1.52;100.00;96943.66;5078165;28;20298;-76
2022/12/10 00:16:11;;;;;;;25.30;16.77;;;;;;;1.50;100.00;96948.13;5078379;28;20203;-76
2022/12/10 00:18:37;;;;;;;29.67;18.17;;;;;;;1.48;100.00;96944.72;5077927;28;20238;-75
2022/12/10 00:21:06;;;;;;;28.20;17.27;;;;;;;1.50;100.00;96953.31;5084782;28;20212;-75
2022/12/10 00:23:33;;;;;;;27.63;17.50;;;;;;;1.53;100.00;96960.13;5091155;28;20211;-76
2022/12/10 00:26:03;;;;;;;29.43;18.03;;;;;;;1.48;100.00;96959.53;5083362;28;20239;-76
2022/12/10 00:28:32;;;;;;;26.17;16.53;;;;;;;1.48;100.00;96956.91;5073941;28;20231;-76
2022/12/10 00:31:04;;;;;;;25.70;16.53;;;;;;;1.45;100.00;96947.50;5074166;28;20218;-75
2022/12/10 00:33:31;;;;;;;26.37;16.80;;;;;;;1.44;100.00;96953.63;5074208;28;20234;-77
2022/12/10 00:36:03;;;;;;;27.27;16.97;;;;;;;1.46;100.00;96949.19;5074147;28;20200;-76
2022/12/10 00:38:29;;;;;;;28.50;17.60;;;;;;;1.50;100.00;96942.91;5073865;28;20238;-76
2022/12/10 00:40:56;;;;;;;29.43;18.47;;;;;;;1.46;100.00;96935.31;5073525;28;20648;-76
2022/12/10 00:43:23;;;;;;;26.17;17.57;;;;;;;1.44;100.00;96929.34;5073897;28;20233;-76
2022/12/10 00:45:49;;;;;;;25.13;17.37;;;;;;;1.48;100.00;96934.31;5073759;28;20231;-76
2022/12/10 00:48:17;;;;;;;29.60;17.67;;;;;;;1.47;100.00;96932.63;5073474;28;20230;-76
2022/12/10 00:50:43;;;;;;;26.73;17.43;;;;;;;1.40;100.00;96926.06;5072298;28;20207;-76
2022/12/10 00:53:10;;;;;;;24.27;15.70;;;;;;;1.39;100.00;96928.75;5073513;28;20598;-76
2022/12/10 00:55:36;;;;;;;27.20;17.30;;;;;;;1.39;100.00;96944.38;5073460;28;20203;-76
2022/12/10 00:58:03;;;;;;;27.27;16.57;;;;;;;1.41;100.00;96943.38;5073577;28;20227;-76
2022/12/10 01:00:29;;;;;;;26.83;16.07;;;;;;;1.39;100.00;96950.44;5073232;28;20218;-76
2022/12/10 01:02:56;;;;;;;24.10;16.07;;;;;;;1.38;100.00;96963.50;5073298;28;20204;-76
2022/12/10 01:05:25;;;;;;;24.23;17.00;;;;;;;1.40;100.00;96959.06;5073300;28;20604;-76
2022/12/10 01:07:53;;;;;;;26.03;16.83;;;;;;;1.42;100.00;96958.06;5073167;28;20239;-76
2022/12/10 01:10:19;;;;;;;24.17;15.97;;;;;;;1.40;100.00;96959.91;5072773;28;20227;-75
2022/12/10 01:12:46;;;;;;;25.50;17.27;;;;;;;1.36;100.00;96966.19;5073349;28;20207;-76
2022/12/10 01:15:12;;;;;;;26.17;16.73;;;;;;;1.36;100.00;96971.41;5073204;28;20210;-76
2022/12/10 01:17:39;;;;;;;27.10;16.87;;;;;;;1.37;100.00;96978.31;5072987;28;20234;-75
2022/12/10 01:20:06;;;;;;;26.73;17.43;;;;;;;1.51;100.00;96973.22;5072698;28;20211;-76
2022/12/10 01:22:34;;;;;;;26.93;16.10;;;;;;;1.49;100.00;96977.69;5072854;28;20679;-76
2022/12/10 01:25:00;;;;;;;24.23;16.83;;;;;;;1.48;100.00;96986.38;5073016;28;20232;-75
2022/12/10 01:27:27;;;;;;;28.77;17.53;;;;;;;1.47;100.00;96981.28;5072754;28;20683;-76
2022/12/10 01:29:54;;;;;;;25.73;15.93;;;;;;;1.40;100.00;96983.34;5072563;28;20206;-76
2022/12/10 01:32:20;;;;;;;27.17;16.83;;;;;;;1.42;100.00;97001.50;5072976;28;20215;-76
2022/12/10 01:34:47;;;;;;;27.00;17.00;;;;;;;1.42;100.00;96996.28;5072770;28;20702;-76
2022/12/10 01:37:13;;;;;;;26.13;16.67;;;;;;;1.46;100.00;96993.44;5072556;28;20230;-76
2022/12/10 01:39:41;;;;;;;25.30;16.33;;;;;;;1.56;100.00;96999.00;5072175;28;20211;-76
2022/12/10 01:42:12;;;;;;;28.63;17.20;;;;;;;1.53;100.00;96994.81;5072686;28;20211;-76
2022/12/10 01:45:06;;;;;;;26.40;17.25;;;;;;;1.56;100.00;97002.47;5072540;28;20208;-76
2022/12/10 01:47:32;;;;;;;23.77;16.23;;;;;;;1.55;100.00;97003.41;5072368;28;20435;-75
2022/12/10 01:50:00;;;;;;;27.57;17.67;;;;;;;1.50;100.00;97002.78;5071984;28;20627;-76
2022/12/10 01:52:28;;;;;;;24.20;16.50;;;;;;;1.50;100.00;97004.53;5072557;28;20667;-76
2022/12/10 01:54:56;;;;;;;23.77;16.43;;;;;;;1.50;100.00;97002.78;5072520;28;20227;-76
2022/12/10 01:57:26;;;;;;;25.40;16.17;;;;;;;1.51;100.00;97007.06;5072029;28;20218;-76
2022/12/10 01:59:54;;;;;;;28.20;16.87;;;;;;;1.50;100.00;97010.59;5071852;28;20614;-76
2022/12/10 02:02:31;;;;;;;23.40;15.53;;;;;;;1.45;100.00;97011.72;5071920;28;20210;-76
2022/12/10 02:05:07;;;;;;;26.23;16.77;;;;;;;1.48;100.00;97012.41;5072260;28;20218;-76
2022/12/10 02:07:45;;;;;;;27.40;17.40;;;;;;;1.44;100.00;97002.25;5071907;28;20227;-76
2022/12/10 02:10:29;;;;;;;25.00;16.37;;;;;;;1.36;100.00;96999.19;5071768;28;20211;-76
2022/12/10 02:13:02;;;;;;;24.90;16.43;;;;;;;1.31;100.00;97004.66;5071972;28;20212;-76
2022/12/10 02:15:33;;;;;;;25.43;16.97;;;;;;;1.35;100.00;97015.75;5071949;28;20211;-75
2022/12/10 02:18:07;;;;;;;30.07;18.20;;;;;;;1.30;100.00;97008.16;5071963;28;20227;-76
2022/12/10 02:20:39;;;;;;;27.87;17.30;;;;;;;1.27;100.00;97005.72;5071545;28;20208;-76
2022/12/10 02:23:09;;;;;;;24.20;15.43;;;;;;;1.18;100.00;97000.94;5071681;28;20217;-76
2022/12/10 02:25:44;;;;;;;22.00;14.93;;;;;;;1.17;100.00;96996.66;5071826;28;20301;-76
2022/12/10 02:28:20;;;;;;;24.03;16.33;;;;;;;1.12;100.00;97003.88;5071824;28;20324;-76
2022/12/10 02:30:51;;;;;;;24.77;16.67;;;;;;;1.13;100.00;97005.56;5071726;28;20637;-76
2022/12/10 02:33:20;;;;;;;23.77;15.23;;;;;;;1.10;100.00;97005.72;5071577;28;20664;-77
2022/12/10 02:35:50;;;;;;;27.27;16.70;;;;;;;1.13;100.00;97010.78;5071642;28;20199;-76
2022/12/10 02:38:21;;;;;;;26.13;16.97;;;;;;;1.18;100.00;96992.31;5071305;28;20237;-76
2022/12/10 02:40:53;;;;;;;27.27;17.07;;;;;;;1.17;100.00;96995.84;5071371;28;20207;-76
2022/12/10 02:43:22;;;;;;;25.80;16.73;;;;;;;1.19;100.00;96994.00;5071568;28;20585;-76
2022/12/10 02:45:51;;;;;;;27.17;17.77;;;;;;;1.20;100.00;96990.47;5071280;28;20230;-76
2022/12/10 02:48:19;;;;;;;26.17;16.73;;;;;;;1.19;100.00;96979.25;5071269;28;20233;-76
2022/12/10 02:50:46;;;;;;;26.97;16.57;;;;;;;1.22;100.00;96989.47;5071039;28;20207;-76
2022/12/10 02:53:12;;;;;;;27.20;17.30;;;;;;;1.22;100.00;96983.44;5071471;28;20282;-77
2022/12/10 02:55:52;;;;;;;25.80;16.10;;;;;;;1.21;100.00;96979.16;5071420;28;20222;-77
2022/12/10 02:58:28;;;;;;;26.77;16.53;;;;;;;1.17;100.00;96975.84;5071159;28;20250;-77
2022/12/10 03:01:03;;;;;;;28.10;17.40;;;;;;;1.15;100.00;96972.50;5070951;28;20223;-77
2022/12/10 03:03:38;;;;;;;24.63;14.93;;;;;;;1.13;100.00;96968.28;5071422;28;20233;-77
2022/12/10 03:06:13;;;;;;;22.97;15.10;;;;;;;1.09;100.00;96962.41;5071208;28;20316;-77
2022/12/10 03:08:46;;;;;;;24.00;15.20;;;;;;;1.01;100.00;96958.50;5070904;28;20234;-77
2022/12/10 03:11:15;;;;;;;27.73;16.93;;;;;;;1.01;100.00;96964.56;5070940;28;20648;-77
2022/12/10 03:13:55;;;;;;;26.83;16.33;;;;;;;0.92;100.00;96965.00;5070716;28;20207;-77
2022/12/10 03:16:24;;;;;;;24.20;15.87;;;;;;;0.86;100.00;96970.50;5071149;28;20207;-77
2022/12/10 03:18:55;;;;;;;25.03;15.60;;;;;;;0.79;100.00;96976.06;5070888;28;20604;-77
2022/12/10 03:21:23;;;;;;;22.70;15.20;;;;;;;0.76;100.00;96984.91;5070954;28;20211;-77
2022/12/10 03:23:51;;;;;;;24.37;15.47;;;;;;;0.76;100.00;96984.91;5071471;28;20221;-77
2022/12/10 03:26:18;;;;;;;23.73;14.57;;;;;;;0.79;100.00;96989.94;5070909;28;20707;-77
2022/12/10 03:28:49;;;;;;;28.13;18.07;;;;;;;0.87;100.00;96987.78;5070681;28;20230;-77
2022/12/10 03:31:17;;;;;;;27.07;17.13;;;;;;;0.97;100.00;96989.03;5070861;28;20231;-76
2022/12/10 03:33:46;;;;;;;25.83;16.47;;;;;;;1.06;100.00;96979.94;5070887;28;20203;-78
2022/12/10 03:36:14;;;;;;;27.20;17.07;;;;;;;1.08;100.00;96965.94;5070619;28;20270;-77
2022/12/10 03:38:41;;;;;;;31.37;17.80;;;;;;;1.12;100.00;96959.63;5070709;28;20761;-77
2022/12/10 03:41:08;;;;;;;27.17;17.33;;;;;;;1.12;100.00;96945.81;5070697;28;20210;-78
2022/12/10 03:43:34;;;;;;;26.57;16.10;;;;;;;1.11;100.00;96933.72;5070849;28;20628;-78
2022/12/10 03:46:01;;;;;;;27.73;16.47;;;;;;;0.99;100.00;96934.34;5070885;28;20230;-77
2022/12/10 03:48:28;;;;;;;26.33;15.63;;;;;;;0.86;100.00;96947.09;5070593;28;20231;-78
2022/12/10 03:50:56;;;;;;;28.80;18.03;;;;;;;0.78;100.00;96951.00;5070549;28;20230;-78
2022/12/10 03:53:22;;;;;;;26.33;16.70;;;;;;;0.79;100.00;96961.31;5070870;28;20215;-78
2022/12/10 03:55:48;;;;;;;28.97;17.60;;;;;;;0.84;100.00;96972.34;5070766;28;20208;-78
2022/12/10 03:58:15;;;;;;;29.77;19.03;;;;;;;0.89;100.00;96979.91;5070646;28;20227;-78
2022/12/10 04:00:41;;;;;;;29.33;17.73;;;;;;;0.94;100.00;96984.00;5070212;28;20207;-77
2022/12/10 04:03:08;;;;;;;24.63;16.43;;;;;;;0.96;100.00;96989.94;5070497;28;20204;-78
2022/12/10 04:05:34;;;;;;;28.60;17.10;;;;;;;0.99;100.00;96991.56;5070698;28;20207;-78
2022/12/10 04:08:02;;;;;;;27.07;16.53;;;;;;;1.05;100.00;97007.69;5070821;28;20246;-76
2022/12/10 04:10:29;;;;;;;27.00;17.03;;;;;;;1.05;100.00;97005.09;5070353;28;20713;-77
2022/12/10 04:18:23;;;;;;;24.97;16.47;;;;;;;1.19;100.00;97002.66;5070504;28;20272;-77
2022/12/10 04:29:10;;;;;;;25.87;16.73;;;;;;;1.21;100.00;96982.59;5073622;28;20342;-77
2022/12/10 04:31:36;;;;;;;27.10;16.97;;;;;;;1.18;100.00;96987.94;5073970;28;20211;-77
2022/12/10 04:34:03;;;;;;;25.80;17.70;;;;;;;1.17;100.00;97001.88;5073837;28;20208;-77
2022/12/10 04:36:29;;;;;;;26.87;17.13;;;;;;;1.15;100.00;96990.72;5073697;28;20211;-77
2022/12/10 04:38:57;;;;;;;29.90;19.30;;;;;;;1.14;100.00;97002.03;5073376;28;20231;-77
2022/12/10 04:41:24;;;;;;;27.60;17.50;;;;;;;1.18;100.00;96995.75;5074003;28;20204;-77
2022/12/10 04:43:50;;;;;;;27.63;16.77;;;;;;;1.22;100.00;96999.88;5073790;28;20203;-77
2022/12/10 04:46:17;;;;;;;24.20;17.07;;;;;;;1.22;100.00;97002.50;5073565;28;20240;-77
2022/12/10 04:48:43;;;;;;;28.57;16.77;;;;;;;1.25;100.00;97004.97;5073526;28;20239;-77
2022/12/10 04:51:10;;;;;;;25.43;16.83;;;;;;;1.21;100.00;97006.03;5073382;28;20211;-77
2022/12/10 04:53:36;;;;;;;27.43;18.10;;;;;;;1.19;100.00;97012.22;5073566;28;20214;-77
2022/12/10 04:56:05;;;;;;;28.90;17.47;;;;;;;1.20;100.00;97019.94;5073487;28;20698;-76
2022/12/10 04:58:32;;;;;;;30.30;18.47;;;;;;;1.24;100.00;97013.66;5073368;28;20231;-76
2022/12/10 05:01:02;;;;;;;26.20;16.47;;;;;;;1.18;100.00;97018.34;5073098;28;20207;-77
2022/12/10 05:03:29;;;;;;;27.37;17.47;;;;;;;1.20;100.00;97012.16;5073288;28;20214;-76
2022/12/10 05:05:55;;;;;;;27.47;17.40;;;;;;;1.24;100.00;97018.84;5073289;28;20231;-76
2022/12/10 05:08:22;;;;;;;27.87;17.40;;;;;;;1.27;100.00;97016.13;5089385;22;20228;-85
2022/12/10 05:10:49;;;;;;;29.57;17.90;;;;;;;1.24;100.00;97013.66;5072402;28;20237;-85
2022/12/10 05:13:16;;;;;;;28.93;17.87;;;;;;;1.18;100.00;97007.94;5073223;28;20220;-85
2022/12/10 05:15:43;;;;;;;28.03;16.90;;;;;;;1.16;100.00;97010.59;5072953;28;20234;-86
2022/12/10 05:18:09;;;;;;;31.70;19.07;;;;;;;1.14;100.00;97007.25;5072724;28;20230;-86
2022/12/10 05:20:36;;;;;;;28.50;17.57;;;;;;;1.04;100.00;97011.22;5072839;28;20210;-85
2022/12/10 05:25:53;;;;;;;28.77;17.80;;;;;;;0.95;100.00;97021.22;5072903;28;20214;-85
2022/12/10 05:28:21;;;;;;;29.60;18.73;;;;;;;1.05;100.00;97018.09;5072697;28;20643;-85
2022/12/10 05:30:47;;;;;;;34.63;17.67;;;;;;;1.06;100.00;97024.16;5072387;28;20203;-85
2022/12/10 05:33:14;;;;;;;29.00;18.20;;;;;;;0.98;100.00;97026.31;5072415;28;20216;-85
2022/12/10 05:35:41;;;;;;;31.60;18.97;;;;;;;0.96;100.00;97028.97;5072433;28;20676;-85
2022/12/10 05:38:07;;;;;;;27.70;18.13;;;;;;;0.93;100.00;97021.28;5073017;28;20231;-85
2022/12/10 05:40:35;;;;;;;31.77;19.07;;;;;;;0.92;100.00;97022.22;5072535;28;20631;-85
2022/12/10 05:43:01;;;;;;;31.67;19.07;;;;;;;0.99;100.00;97038.38;5072760;28;20678;-85
2022/12/10 05:45:29;;;;;;;29.80;18.80;;;;;;;0.98;100.00;97034.09;5073801;28;20218;-85
2022/12/10 05:47:56;;;;;;;27.40;17.73;;;;;;;0.93;100.00;97039.50;5080334;28;20227;-85
2022/12/10 05:50:22;;;;;;;30.00;18.30;;;;;;;1.00;100.00;97042.66;5074684;28;20218;-84
2022/12/10 05:52:51;;;;;;;29.00;17.77;;;;;;;0.96;100.00;97034.16;5072320;28;20207;-84
2022/12/10 05:55:17;;;;;;;28.07;16.87;;;;;;;0.86;100.00;97038.13;5072275;28;20203;-84
2022/12/10 05:57:44;;;;;;;30.43;17.50;;;;;;;0.87;100.00;97034.59;5072176;28;20704;-85
2022/12/10 06:00:12;;;;;;;32.50;19.37;;;;;;;0.89;100.00;97037.13;5071968;28;20659;-84
2022/12/10 06:02:39;;;;;;;28.40;18.33;;;;;;;0.84;100.00;97039.09;5072216;28;20215;-85
2022/12/10 06:05:06;;;;;;;29.90;18.73;;;;;;;0.71;100.00;97044.06;5071975;28;20214;-85
2022/12/10 06:07:33;;;;;;;31.07;18.83;;;;;;;0.68;100.00;97043.38;5071646;28;20223;-84
2022/12/10 06:09:59;;;;;;;27.63;17.40;;;;;;;0.74;100.00;97049.13;5071436;28;20218;-85
2022/12/10 06:12:26;;;;;;;29.47;18.27;;;;;;;0.71;100.00;97059.69;5071674;28;20203;-85
2022/12/10 06:14:52;;;;;;;30.70;17.53;;;;;;;0.77;100.00;97059.38;5072224;28;20208;-84
2022/12/10 06:17:19;;;;;;;32.90;18.83;;;;;;;0.74;100.00;97064.72;5071797;28;20203;-84
2022/12/10 06:19:47;;;;;;;26.73;17.00;;;;;;;0.76;100.00;97068.09;5071646;28;20237;-84
2022/12/10 06:22:13;;;;;;;30.20;18.47;;;;;;;0.84;100.00;97058.16;5071772;28;20735;-85
2022/12/10 06:24:40;;;;;;;27.30;16.97;;;;;;;0.86;100.00;97066.72;5071525;28;20203;-85
2022/12/10 06:27:07;;;;;;;27.87;17.70;;;;;;;0.85;100.00;97057.25;5071396;28;20227;-84
2022/12/10 06:29:33;;;;;;;28.47;17.43;;;;;;;0.79;100.00;97067.94;5071364;28;20250;-85
2022/12/10 06:32:00;;;;;;;30.33;17.63;;;;;;;0.77;100.00;97069.78;5071506;28;20210;-85
2022/12/10 06:34:26;;;;;;;25.43;15.83;;;;;;;0.80;100.00;97074.00;5071672;28;20233;-85
2022/12/10 06:36:54;;;;;;;26.57;17.93;;;;;;;0.83;100.00;97079.03;5071351;28;20230;-85
2022/12/10 06:39:20;;;;;;;27.37;16.80;;;;;;;0.77;100.00;97075.00;5071029;28;20223;-85
2022/12/10 06:41:47;;;;;;;28.27;17.80;;;;;;;0.73;100.00;97083.84;5071481;28;20207;-84
2022/12/10 06:44:14;;;;;;;29.57;18.33;;;;;;;0.70;100.00;97084.00;5071508;28;20215;-85
2022/12/10 06:46:41;;;;;;;29.00;17.87;;;;;;;0.76;100.00;97088.91;5071036;28;20686;-85
2022/12/10 06:49:08;;;;;;;29.37;18.17;;;;;;;0.79;100.00;97088.75;5070217;28;20573;-85
2022/12/10 06:51:35;;;;;;;30.10;18.33;;;;;;;0.73;100.00;97094.25;5071212;28;20208;-84
2022/12/10 06:54:04;;;;;;;26.90;17.20;;;;;;;0.70;100.00;97084.00;5071026;28;20211;-85
2022/12/10 06:56:30;;;;;;;27.37;17.67;;;;;;;0.76;100.00;97088.91;5071073;28;20700;-85
2022/12/10 06:58:57;;;;;;;28.87;18.30;;;;;;;0.72;100.00;97089.97;5070984;28;20232;-84
2022/12/10 07:01:26;;;;;;;33.47;19.53;;;;;;;0.73;100.00;97083.84;5071395;28;20211;-85
2022/12/10 07:03:54;;;;;;;29.13;16.67;;;;;;;0.73;100.00;97088.19;5071042;28;20207;-85
2022/12/10 07:06:21;;;;;;;26.17;17.03;;;;;;;0.74;100.00;97084.69;5070973;28;20203;-85
2022/12/10 07:08:48;;;;;;;28.43;17.60;;;;;;;0.78;100.00;97089.66;5070486;28;20331;-85
2022/12/10 07:11:21;;;;;;;27.53;16.87;;;;;;;0.82;100.00;97083.41;5071002;28;20208;-85
2022/12/10 07:13:47;;;;;;;28.00;17.00;;;;;;;0.79;100.00;97086.16;5070984;28;20690;-85
2022/12/10 07:16:15;;;;;;;28.60;17.07;;;;;;;0.80;100.00;97085.22;5071106;28;20214;-85
2022/12/10 07:18:42;;;;;;;25.40;16.53;;;;;;;0.79;100.00;97086.16;5071092;28;20223;-85
2022/12/10 07:21:14;;;;;;;26.63;16.87;;;;;;;0.82;100.00;97085.16;5070539;28;20226;-84
2022/12/10 07:23:41;;;;;;;27.37;17.40;;;;;;;0.84;100.00;97091.97;5071072;28;20580;-85
2022/12/10 07:26:07;;;;;;;27.87;17.63;;;;;;;0.84;100.00;97091.13;5071072;28;20222;-85
2022/12/10 07:28:35;;;;;;;26.63;16.50;;;;;;;0.87;100.00;97096.19;5070794;28;20646;-85
2022/12/10 07:31:02;;;;;;;28.87;17.70;;;;;;;0.82;100.00;97108.56;5070866;28;20218;-85
2022/12/10 07:33:28;;;;;;;30.93;17.83;;;;;;;0.88;100.00;97103.06;5070991;28;20580;-85
2022/12/10 07:35:56;;;;;;;24.37;16.43;;;;;;;0.91;100.00;97106.38;5070962;28;20211;-85
2022/12/10 07:38:22;;;;;;;27.17;17.13;;;;;;;1.03;100.00;97102.34;5071174;28;20241;-85
2022/12/10 07:40:49;;;;;;;31.77;18.93;;;;;;;0.93;100.00;97103.72;5070633;28;20214;-85
2022/12/10 07:43:18;;;;;;;27.13;16.83;;;;;;;1.03;100.00;97104.94;5070838;28;20223;-85
2022/12/10 07:45:45;;;;;;;29.17;16.63;;;;;;;1.04;100.00;97110.06;5070640;28;20230;-85
2022/12/10 07:48:12;;;;;;;27.67;17.57;;;;;;;1.03;100.00;97103.19;5070401;28;20241;-85
2022/12/10 07:50:38;;;;;;;27.67;17.07;;;;;;;0.94;100.00;97118.38;5070546;28;20212;-85
2022/12/10 07:53:06;;;;;;;29.20;17.57;;;;;;;1.03;100.00;97126.59;5070813;28;20207;-85
2022/12/10 07:55:32;;;;;;;27.13;17.17;;;;;;;0.92;100.00;97125.44;5070683;28;20760;-85
2022/12/10 07:57:59;;;;;;;26.63;16.63;;;;;;;1.06;100.00;97121.22;5070936;28;20224;-85
2022/12/10 08:00:26;;;;;;;24.40;16.20;;;;;;;0.98;100.00;97118.16;5073703;28;20211;-85
2022/12/10 08:02:53;;;;;;;33.00;18.40;;;;;;;0.92;100.00;97115.03;5074481;28;20218;-85
2022/12/10 08:05:20;;;;;;;25.37;16.83;;;;;;;0.98;100.00;97127.75;5074468;28;20224;-85
2022/12/10 08:07:46;;;;;;;26.50;16.50;;;;;;;1.00;100.00;97124.13;5074222;28;20242;-84
2022/12/10 08:10:13;;;;;;;28.30;18.23;;;;;;;1.08;100.00;97121.16;5074125;28;20218;-85
2022/12/10 08:12:39;;;;;;;29.43;17.83;;;;;;;1.06;100.00;97123.84;5074385;28;20203;-85
2022/12/10 08:15:08;;;;;;;27.67;17.50;;;;;;;1.06;100.00;97129.03;5074242;28;20597;-84
2022/12/10 08:17:36;;;;;;;31.50;19.00;;;;;;;1.15;100.00;97133.81;5074405;28;20230;-84
2022/12/10 08:20:04;;;;;;;29.83;16.60;;;;;;;1.10;100.00;97135.78;5074159;28;20207;-85
2022/12/10 08:22:32;;;;;;;29.53;17.83;;;;;;;1.22;100.00;97145.63;5074310;28;20226;-85
2022/12/10 08:24:59;;;;;;;29.63;17.80;;;;;;;1.24;100.00;97140.34;5074118;28;20207;-85
2022/12/10 08:27:25;;;;;;;26.53;16.83;;;;;;;1.30;100.00;97133.06;5074157;28;20266;-85
2022/12/10 08:29:52;;;;;;;30.27;17.67;;;;;;;1.22;100.00;97130.00;5073457;28;20239;-85
2022/12/10 08:32:19;;;;;;;29.87;17.07;;;;;;;1.29;100.00;97120.97;5074123;28;20211;-85
2022/12/10 08:34:45;;;;;;;29.97;17.20;;;;;;;1.26;100.00;97123.75;5074244;28;20211;-85
2022/12/10 08:37:13;;;;;;;28.40;17.67;;;;;;;1.16;100.00;97124.28;5074120;28;20575;-85
2022/12/10 08:39:40;;;;;;;29.47;18.30;;;;;;;1.22;100.00;97130.00;5073540;28;20228;-86
2022/12/10 08:42:06;;;;;;;31.57;17.63;;;;;;;1.20;100.00;97125.78;5074018;28;20405;-83
2022/12/10 08:44:33;;;;;;;26.47;16.77;;;;;;;1.14;100.00;97126.94;5073698;28;20214;-77
2022/12/10 08:46:59;;;;;;;26.27;17.63;;;;;;;1.13;100.00;97125.25;5073795;28;20235;-83
2022/12/10 08:49:26;;;;;;;28.60;16.93;;;;;;;1.24;100.00;97116.91;5073879;28;20862;-83
2022/12/10 08:51:52;;;;;;;24.83;16.03;;;;;;;1.26;100.00;97121.13;5073823;28;20218;-85
2022/12/10 08:54:20;;;;;;;25.80;16.37;;;;;;;1.24;100.00;97127.34;5078915;28;20237;-88
2022/12/10 08:56:47;;;;;;;27.90;18.20;;;;;;;1.25;100.00;97132.47;5082092;28;20599;-88
2022/12/10 08:59:14;;;;;;;27.43;16.57;;;;;;;1.30;100.00;97140.88;5073140;28;20300;-88
2022/12/10 09:01:40;;;;;;;30.43;18.00;;;;;;;1.45;100.00;97142.75;5073394;28;20236;-85
2022/12/10 09:04:07;;;;;;;28.70;17.30;;;;;;;1.42;100.00;97142.88;5073224;28;20208;-86
2022/12/10 09:06:34;;;;;;;28.23;18.10;;;;;;;1.44;100.00;97146.28;5073146;28;20288;-86
2022/12/10 09:09:00;;;;;;;28.53;17.83;;;;;;;1.45;100.00;97147.09;5072610;28;20231;-86
2022/12/10 09:11:31;;;;;;;25.27;17.67;;;;;;;1.59;100.00;97140.28;5072276;28;20204;-86
2022/12/10 09:13:57;;;;;;;26.63;16.63;;;;;;;1.60;100.00;97136.78;5073192;28;20212;-88
2022/12/10 09:16:29;;;;;;;26.07;16.23;;;;;;;1.64;100.00;97133.09;5073360;28;20211;-87
2022/12/10 09:18:55;;;;;;;26.63;16.90;;;;;;;1.66;100.00;97130.44;5072871;28;20231;-87
2022/12/10 09:21:22;;;;;;;25.50;16.20;;;;;;;1.67;100.00;97127.72;5073023;28;20214;-87
2022/12/10 09:23:51;;;;;;;25.17;17.07;;;;;;;1.63;100.00;97134.03;5072873;28;20647;-86
2022/12/10 09:26:18;;;;;;;28.27;16.43;;;;;;;1.58;100.00;97135.16;5073000;28;20222;-86
2022/12/10 09:28:47;;;;;;;28.00;17.50;;;;;;;1.61;100.00;97148.88;5072958;28;20329;-86
2022/12/10 09:31:15;;;;;;;27.73;17.00;;;;;;;1.57;100.00;97144.75;5072955;28;20212;-86
2022/12/10 09:33:42;;;;;;;26.00;15.10;;;;;;;1.57;100.00;97147.34;5072827;28;20214;-77
2022/12/10 09:36:11;;;;;;;25.77;16.03;;;;;;;1.66;100.00;97162.50;5072582;28;20211;-84
2022/12/10 09:38:39;;;;;;;25.37;15.87;;;;;;;1.68;100.00;97167.66;5072463;28;20227;-84
2022/12/10 09:41:19;;;;;;;26.73;16.20;;;;;;;1.69;100.00;97156.31;5072789;28;20208;-82
2022/12/10 09:43:52;;;;;;;24.77;14.50;;;;;;;1.71;100.00;97162.31;5072855;28;20211;-82
2022/12/10 09:46:24;;;;;;;23.60;15.27;;;;;;;1.69;100.00;97159.75;5072760;28;20416;-82
2022/12/10 09:49:00;;;;;;;28.33;17.00;;;;;;;1.72;100.00;97156.16;5072316;28;20242;-81
2022/12/10 09:51:30;;;;;;;24.30;15.70;;;;;;;1.73;100.00;97148.25;5072800;28;20223;-82
2022/12/10 09:53:59;;;;;;;25.67;16.57;;;;;;;1.70;100.00;97138.00;5072758;28;20219;-82
2022/12/10 09:56:29;;;;;;;25.97;15.80;;;;;;;1.81;100.00;97127.03;5072461;28;20234;-83
2022/12/10 09:58:58;;;;;;;21.87;14.10;;;;;;;1.81;100.00;97130.50;5072244;28;20596;-81
2022/12/10 10:01:28;;;;;;;23.40;15.83;;;;;;;1.89;100.00;97141.38;5072387;28;20701;-80
2022/12/10 10:03:55;;;;;;;25.40;16.30;;;;;;;1.92;100.00;97143.84;5071813;28;20214;-81
2022/12/10 10:06:23;;;;;;;26.17;17.10;;;;;;;2.00;100.00;97136.47;5072253;28;20211;-80
2022/12/10 10:08:53;;;;;;;22.13;14.63;;;;;;;2.11;100.00;97138.50;5070946;28;20516;-80
2022/12/10 10:11:23;;;;;;;25.60;16.53;;;;;;;2.16;100.00;97132.16;5072149;28;20238;-82
2022/12/10 10:13:54;;;;;;;24.53;15.83;;;;;;;2.04;100.00;97121.50;5071260;28;20212;-81
2022/12/10 10:16:25;;;;;;;23.57;15.30;;;;;;;2.11;100.00;97123.72;5071812;28;20212;-81
2022/12/10 10:18:58;;;;;;;22.17;15.20;;;;;;;2.08;100.00;97129.06;5071527;28;20224;-82
2022/12/10 10:21:28;;;;;;;23.13;15.73;;;;;;;2.10;99.33;97119.44;5072209;28;20211;-83
2022/12/10 10:23:56;;;;;;;21.67;15.13;;;;;;;1.98;98.81;97117.47;5071982;28;20255;-86
2022/12/10 10:26:25;;;;;;;23.53;15.10;;;;;;;2.10;98.40;97111.63;5071545;28;20701;-82
2022/12/10 10:28:57;;;;;;;24.63;16.17;;;;;;;2.09;99.69;97115.13;5071417;28;20250;-83
2022/12/10 10:31:27;;;;;;;23.80;15.30;;;;;;;2.09;100.00;97129.94;5071820;28;20693;-84
2022/12/10 10:33:56;;;;;;;23.97;15.97;;;;;;;2.12;100.00;97120.19;5070110;28;20207;-85
2022/12/10 10:36:28;;;;;;;23.00;15.27;;;;;;;2.20;100.00;97123.22;5069341;28;20302;-78
2022/12/10 10:38:55;;;;;;;25.17;15.60;;;;;;;2.27;100.00;97124.59;5070183;28;20230;-84
2022/12/10 10:41:24;;;;;;;23.60;14.37;;;;;;;2.14;99.19;97117.50;5070453;28;20203;-84
2022/12/10 10:44:00;;;;;;;26.00;16.43;;;;;;;2.18;99.28;97124.22;5068655;28;20751;-84
2022/12/10 10:46:28;;;;;;;23.47;15.83;;;;;;;2.10;98.67;97116.84;5050711;28;20686;-84
2022/12/10 10:49:14;;;;;;;27.97;16.57;;;;;;;2.20;97.59;97112.81;5050943;28;20242;-84
2022/12/10 10:51:43;;;;;;;23.20;15.17;;;;;;;2.10;98.05;97111.63;5051298;28;20215;-84
2022/12/10 10:54:10;;;;;;;22.53;15.00;;;;;;;2.12;98.57;97114.97;5051565;28;20212;-84
2022/12/10 10:56:42;;;;;;;25.37;15.90;;;;;;;2.12;98.58;97109.75;5051114;28;20211;-84
2022/12/10 10:59:30;;;;;;;24.03;16.70;;;;;;;2.08;98.90;97117.84;5050863;28;20250;-84
2022/12/10 11:02:05;;;;;;;25.83;15.83;;;;;;;2.09;99.77;97120.34;5051316;28;20295;-83
2022/12/10 11:04:38;;;;;;;23.40;15.77;;;;;;;2.08;100.00;97131.69;5051138;28;20875;-82
2022/12/10 11:07:13;;;;;;;27.53;17.30;;;;;;;2.06;100.00;97136.16;5051212;28;20577;-83
2022/12/10 11:09:40;;;;;;;25.80;16.60;;;;;;;2.05;100.00;97134.47;5090574;22;20234;-78
2022/12/10 11:12:21;;;;;;;25.67;16.43;;;;;;;2.13;99.78;97142.72;5091191;28;20641;-78
2022/12/10 11:14:48;;;;;;;21.70;14.83;;;;;;;2.31;98.82;97136.56;5089866;28;20369;-78
2022/12/10 11:17:22;;;;;;;24.63;15.90;;;;;;;2.40;97.93;97136.06;5091051;28;20206;-78
2022/12/10 11:19:57;;;;;;;23.73;15.43;;;;;;;2.41;97.54;97131.69;5091042;28;20238;-78
2022/12/10 11:22:26;;;;;;;23.93;14.93;;;;;;;2.40;98.37;97146.47;5090607;28;20524;-78
2022/12/10 11:24:52;;;;;;;21.67;14.77;;;;;;;2.28;99.14;97154.13;5091049;28;20207;-79
2022/12/10 11:27:34;;;;;;;26.63;16.47;;;;;;;2.26;98.88;97146.38;5091390;28;20204;-77
2022/12/10 11:30:04;;;;;;;23.30;15.77;;;;;;;2.36;98.59;97144.97;5091219;28;20270;-76
2022/12/10 11:32:47;;;;;;;23.97;15.90;;;;;;;2.40;98.75;97136.06;5091311;28;20203;-79
2022/12/10 11:35:19;;;;;;;25.63;15.87;;;;;;;2.44;97.84;97136.75;5094005;28;20263;-77
2022/12/10 11:37:55;;;;;;;26.90;16.87;;;;;;;2.47;96.91;97131.38;5095467;28;20722;-77
2022/12/10 11:40:33;;;;;;;27.30;16.70;;;;;;;2.46;97.41;97143.56;5094738;28;20724;-77